Terminal Aerodrome Forecast
Issued by NWS

Home | Current Version | Previous Version | Text Only | Print | Product List | Glossary On
Versions: 1 2 3 4 5 6 7 8 9 10 11 12 13 14 15 16 17 18 19 20
000
FTUS43 KDVN 211629 AAB
TAFCID
TAF AMD
KCID 211629Z 2116/2212 17016G26KT P6SM SCT025
     FM220000 17015G21KT P6SM VCSH OVC040
     FM220700 28008KT P6SM BKN010=

USA.gov is the U.S. government's official web portal to all federal, state and local government web resources and services.